createdAt,value
2022-10-17T00:00:02.174Z,75.24971427567843
2022-10-17T00:15:01.860Z,73.86265116025974
2022-10-17T00:30:02.552Z,72.74595579408341
2022-10-17T00:45:02.207Z,72.80850363521655
2022-10-17T01:00:01.885Z,72.8843210333052
2022-10-17T01:15:02.515Z,72.3811020657541
2022-10-17T01:30:02.207Z,72.32945704069232
2022-10-17T01:45:01.896Z,72.9422583894988
2022-10-17T02:00:02.513Z,72.7365798080855
2022-10-17T02:15:02.151Z,72.7157670101336
2022-10-17T02:30:01.870Z,72.72277841824784
2022-10-17T02:45:02.522Z,73.02810572011653
2022-10-17T03:00:02.209Z,74.20004300587458
2022-10-17T03:15:01.901Z,75.66256988042774
2022-10-17T03:30:01.607Z,75.69644248033029
2022-10-17T03:45:02.246Z,77.29584951220598
2022-10-17T04:00:01.885Z,78.10861130663659
2022-10-17T04:15:02.536Z,77.7922022648911
2022-10-17T04:30:01.864Z,75.78630558730623
2022-10-17T04:45:02.553Z,75.79982883701291
2022-10-17T05:00:02.317Z,75.84209728572647
2022-10-17T05:15:02.145Z,77.49573338563353
2022-10-17T05:30:01.900Z,77.29256128459608
2022-10-17T05:45:02.534Z,78.25077959248695
2022-10-17T06:00:02.175Z,77.50892690362816
2022-10-17T06:15:01.857Z,78.49436302065942
2022-10-17T06:30:02.549Z,76.70389054517294
2022-10-17T06:45:02.188Z,76.79847363506234
2022-10-17T07:00:01.848Z,77.14703871180332
2022-10-17T07:15:02.515Z,76.91692105069255
2022-10-17T07:30:02.230Z,76.46951894137783
2022-10-17T07:45:01.894Z,76.71115895328566
2022-10-17T08:00:02.490Z,77.85513759915413
2022-10-17T08:15:02.123Z,81.27496876660801
2022-10-17T08:30:01.842Z,83.28258691925794
2022-10-17T08:45:02.498Z,83.26827343608298
2022-10-17T09:00:02.168Z,82.69798243013562
2022-10-17T09:15:01.876Z,82.584774670287
2022-10-17T09:30:02.555Z,82.25615172492125
2022-10-17T09:45:02.200Z,81.41748927566907
2022-10-17T10:00:02.009Z,80.7323531276065
2022-10-17T10:15:01.740Z,79.63004823818417
2022-10-17T10:30:02.411Z,79.29603824339198
2022-10-17T10:45:01.999Z,78.54378422230302
2022-10-17T11:00:01.685Z,77.76841211168329
2022-10-17T11:15:02.282Z,76.80946777254843
2022-10-17T11:30:01.988Z,76.58873976420759
2022-10-17T11:45:01.653Z,76.55919265288485
2022-10-17T12:00:02.290Z,76.45878538822588
2022-10-17T12:15:01.896Z,76.42403763834068
2022-10-17T12:30:02.572Z,76.20900696355001
2022-10-17T12:45:02.191Z,76.4630041344816
2022-10-17T13:00:01.833Z,76.3515609921839
2022-10-17T13:15:02.488Z,76.02661857115979
2022-10-17T13:30:02.204Z,76.09131886520868
2022-10-17T13:45:01.850Z,76.26658997046214
2022-10-17T14:00:02.481Z,76.22189085610142
2022-10-17T14:15:10.745Z,76.5510945481608
2022-10-17T14:30:02.042Z,76.45320734290473
2022-10-17T14:45:01.708Z,76.65275701294749
2022-10-17T15:00:02.371Z,76.59948297884785
2022-10-17T15:15:02.052Z,76.72065824724616
2022-10-17T15:30:01.792Z,76.63643855504729
2022-10-17T15:45:02.468Z,76.81701859819502
2022-10-17T16:00:02.162Z,77.65547350278369
2022-10-17T16:15:01.845Z,78.25609058277072
2022-10-17T16:30:02.537Z,79.29860863938005
2022-10-17T16:45:02.178Z,79.44309949471906
2022-10-17T17:00:01.911Z,79.2051775408519
2022-10-17T17:15:02.546Z,79.06335911457681
2022-10-17T17:30:02.227Z,79.38400306242441
2022-10-17T17:45:01.862Z,79.29390150370168
2022-10-17T18:00:02.527Z,79.31806045795645
2022-10-17T18:15:02.195Z,78.80480958313048
2022-10-17T18:30:01.930Z,78.39475814606169
2022-10-17T18:45:01.607Z,78.2192615199755
2022-10-17T19:00:02.399Z,78.41592856498973
2022-10-17T19:15:02.120Z,78.34718917597843
2022-10-17T19:30:01.821Z,78.26779342175475
2022-10-17T19:45:02.468Z,77.89430369066862
2022-10-17T20:00:02.149Z,78.23330698228659
2022-10-17T20:15:01.797Z,78.16071373335969
2022-10-17T20:30:02.515Z,78.24900837261092
2022-10-17T20:45:02.136Z,77.8242271538549
2022-10-17T21:00:01.846Z,77.40589150260175
2022-10-17T21:15:02.511Z,77.5222517524812
2022-10-17T21:30:02.283Z,77.32721664884872
2022-10-17T21:45:04.761Z,77.31548695343396
2022-10-17T22:00:02.481Z,77.32676736762451
2022-10-17T22:15:02.215Z,77.21810862939725
2022-10-17T22:30:01.939Z,76.92754602169033
2022-10-17T22:45:01.589Z,77.05476492069076
2022-10-17T23:00:02.228Z,76.87226771842394
2022-10-17T23:15:01.916Z,76.85847689452872
2022-10-17T23:30:01.622Z,76.855771106123
2022-10-17T23:45:02.263Z,76.83792707585927
